Time;durP1;ratioP1;P1;durP2;ratioP2;P2;SDS_P1;SDS_P2;PMS_P1;PMS_P2;Temp;Humidity;BMP_temperature;BMP_pressure;BME280_temperature;BME280_humidity;BME280_pressure;Samples;Min_cycle;Max_cycle;Signal;HPM_P1;HPM_P2
2022/11/23 00:01:47;;;;;;;158.93;49.38;;;;;;;;;;6255837;28;20507;-64
2022/11/23 00:04:47;;;;;;;143.25;47.75;;;;;;;;;;6254304;28;20407;-63
2022/11/23 00:07:48;;;;;;;144.45;48.22;;;;;;;;;;6250621;28;20065;-74
2022/11/23 00:10:49;;;;;;;142.90;47.70;;;;;;;;;;6250646;28;20053;-63
2022/11/23 00:13:50;;;;;;;148.30;47.80;;;;;;;;;;6250829;28;20140;-63
2022/11/23 00:16:50;;;;;;;135.10;48.53;;;;;;;;;;6249778;28;20057;-71
2022/11/23 00:19:51;;;;;;;142.65;50.00;;;;;;;;;;6255074;28;20033;-63
2022/11/23 00:22:51;;;;;;;158.50;52.40;;;;;;;;;;6250298;28;20040;-63
2022/11/23 00:25:52;;;;;;;140.15;49.85;;;;;;;;;;6239879;28;20148;-63
2022/11/23 00:28:53;;;;;;;142.70;47.60;;;;;;;;;;6253303;28;20077;-63
2022/11/23 00:31:53;;;;;;;136.68;47.83;;;;;;;;;;6248547;28;20455;-68
2022/11/23 00:34:54;;;;;;;129.32;48.05;;;;;;;;;;6265811;28;20740;-73
2022/11/23 00:37:54;;;;;;;145.43;52.17;;;;;;;;;;6248505;28;20480;-75
2022/11/23 00:41:00;;;;;;;144.77;53.72;;;;;;;;;;6248954;28;20184;-63
2022/11/23 00:44:01;;;;;;;137.32;49.70;;;;;;;;;;6253002;28;20072;-63
2022/11/23 00:47:02;;;;;;;129.07;47.45;;;;;;;;;;6250131;28;20487;-67
2022/11/23 00:50:03;;;;;;;163.98;54.13;;;;;;;;;;6250588;28;20507;-64
2022/11/23 00:53:03;;;;;;;196.60;60.22;;;;;;;;;;6255063;28;20059;-63
2022/11/23 00:56:04;;;;;;;170.90;52.78;;;;;;;;;;6241623;28;20971;-63
2022/11/23 00:59:05;;;;;;;154.68;49.33;;;;;;;;;;6251084;28;20091;-63
2022/11/23 01:02:05;;;;;;;167.45;54.10;;;;;;;;;;6259380;28;20033;-66
2022/11/23 01:05:06;;;;;;;163.95;52.55;;;;;;;;;;6260163;28;20101;-63
2022/11/23 01:08:07;;;;;;;142.70;50.60;;;;;;;;;;6268376;28;20069;-63
2022/11/23 01:11:10;;;;;;;146.23;47.70;;;;;;;;;;6256800;28;20041;-63
2022/11/23 01:14:11;;;;;;;129.98;44.30;;;;;;;;;;6254185;28;20419;-63
2022/11/23 01:17:12;;;;;;;142.35;46.75;;;;;;;;;;6253791;28;20050;-62
2022/11/23 01:20:13;;;;;;;136.82;46.42;;;;;;;;;;6251170;28;20906;-63
2022/11/23 01:23:13;;;;;;;126.10;42.97;;;;;;;;;;6250090;28;20067;-63
2022/11/23 01:26:15;;;;;;;132.32;41.00;;;;;;;;;;6253989;28;20041;-64
2022/11/23 01:29:15;;;;;;;133.95;41.45;;;;;;;;;;6253333;28;20048;-78
2022/11/23 01:32:16;;;;;;;126.35;40.67;;;;;;;;;;6258074;28;20083;-63
2022/11/23 01:35:16;;;;;;;126.65;39.47;;;;;;;;;;6253329;28;20071;-63
2022/11/23 01:38:17;;;;;;;124.18;41.78;;;;;;;;;;6249940;28;20132;-63
2022/11/23 01:41:38;;;;;;;133.93;42.90;;;;;;;;;;6248919;28;20104;-66
2022/11/23 01:44:42;;;;;;;134.18;43.67;;;;;;;;;;6251664;28;20051;-73
2022/11/23 01:47:42;;;;;;;125.40;43.63;;;;;;;;;;6251398;28;20498;-63
2022/11/23 01:50:47;;;;;;;118.63;41.92;;;;;;;;;;6250568;28;20056;-65
2022/11/23 01:53:50;;;;;;;132.07;41.72;;;;;;;;;;6249974;28;20399;-63
2022/11/23 01:56:56;;;;;;;125.57;39.85;;;;;;;;;;6250395;28;20060;-64
2022/11/23 01:59:57;;;;;;;116.85;38.17;;;;;;;;;;6251953;28;20048;-64
2022/11/23 02:02:59;;;;;;;115.68;36.90;;;;;;;;;;6247117;28;20045;-63
2022/11/23 02:06:01;;;;;;;;;;;;;;;;;;6254197;28;20041;-63
2022/11/23 02:09:02;;;;;;;111.05;33.58;;;;;;;;;;6247739;28;19936;-64
2022/11/23 02:12:09;;;;;;;126.78;36.17;;;;;;;;;;6250948;28;20048;-65
2022/11/23 02:15:10;;;;;;;118.15;36.05;;;;;;;;;;6249528;28;20041;-63
2022/11/23 02:18:18;;;;;;;115.75;33.58;;;;;;;;;;6248446;28;20053;-64
2022/11/23 02:21:19;;;;;;;105.10;34.20;;;;;;;;;;6239988;28;20054;-64
2022/11/23 02:24:37;;;;;;;121.40;34.15;;;;;;;;;;6246442;28;20456;-63
2022/11/23 02:27:38;;;;;;;114.00;34.47;;;;;;;;;;6251426;28;20136;-75
2022/11/23 02:30:40;;;;;;;113.63;35.25;;;;;;;;;;6256657;28;20753;-63
2022/11/23 02:33:41;;;;;;;101.85;32.03;;;;;;;;;;6251196;28;20045;-63
2022/11/23 02:36:48;;;;;;;108.50;33.60;;;;;;;;;;6250694;28;20052;-62
2022/11/23 02:39:52;;;;;;;109.53;33.28;;;;;;;;;;6250656;28;20056;-62
2022/11/23 02:42:53;;;;;;;114.93;33.85;;;;;;;;;;6260275;28;20061;-64
2022/11/23 02:45:56;;;;;;;98.88;31.45;;;;;;;;;;6262374;28;20052;-62
2022/11/23 02:48:56;;;;;;;101.32;33.42;;;;;;;;;;6250559;28;20074;-62
2022/11/23 02:51:57;;;;;;;127.25;39.42;;;;;;;;;;6249833;28;20049;-77
2022/11/23 02:54:57;;;;;;;114.85;34.03;;;;;;;;;;6249733;28;20048;-74
2022/11/23 02:57:58;;;;;;;107.93;32.67;;;;;;;;;;6247888;28;20053;-62
2022/11/23 03:00:59;;;;;;;114.65;34.35;;;;;;;;;;6248756;28;20511;-67
2022/11/23 03:03:59;;;;;;;98.70;31.42;;;;;;;;;;6253475;28;20049;-63
2022/11/23 03:07:00;;;;;;;107.55;33.38;;;;;;;;;;6265278;28;20083;-62
2022/11/23 03:10:01;;;;;;;104.53;32.35;;;;;;;;;;6262433;28;20049;-62
2022/11/23 03:13:02;;;;;;;101.43;31.60;;;;;;;;;;6257252;28;20049;-68
2022/11/23 03:16:03;;;;;;;105.10;32.70;;;;;;;;;;6247608;28;20056;-61
2022/11/23 03:19:03;;;;;;;104.72;33.63;;;;;;;;;;6260407;28;20064;-63
2022/11/23 03:22:04;;;;;;;110.93;35.92;;;;;;;;;;6258560;28;20051;-74
2022/11/23 03:25:05;;;;;;;108.65;34.85;;;;;;;;;;6257635;28;20049;-63
2022/11/23 03:28:06;;;;;;;101.35;36.10;;;;;;;;;;6260645;28;20054;-64
2022/11/23 03:31:06;;;;;;;99.90;33.92;;;;;;;;;;6249687;28;20041;-64
2022/11/23 03:34:08;;;;;;;95.03;30.90;;;;;;;;;;6247205;28;20060;-63
2022/11/23 03:37:09;;;;;;;100.43;32.23;;;;;;;;;;6254715;28;20090;-63
2022/11/23 03:40:10;;;;;;;97.35;31.67;;;;;;;;;;6253028;28;20065;-63
2022/11/23 03:43:11;;;;;;;99.90;32.40;;;;;;;;;;6250474;28;20048;-66
2022/11/23 03:46:12;;;;;;;93.63;30.77;;;;;;;;;;6264551;28;20049;-63
2022/11/23 03:49:12;;;;;;;92.40;29.83;;;;;;;;;;6266532;28;20041;-63
2022/11/23 03:52:13;;;;;;;85.65;27.98;;;;;;;;;;6254641;28;20049;-63
2022/11/23 03:55:14;;;;;;;91.93;28.58;;;;;;;;;;6251404;28;20107;-65
2022/11/23 03:58:15;;;;;;;98.85;29.85;;;;;;;;;;6269620;28;20548;-63
2022/11/23 04:01:16;;;;;;;93.97;27.80;;;;;;;;;;6258076;28;20040;-71
2022/11/23 04:04:17;;;;;;;87.60;30.08;;;;;;;;;;6253030;28;20053;-63
2022/11/23 04:07:18;;;;;;;108.33;35.77;;;;;;;;;;6253229;28;20096;-63
2022/11/23 04:10:19;;;;;;;108.05;33.92;;;;;;;;;;6252791;28;20049;-71
2022/11/23 04:13:19;;;;;;;96.10;31.15;;;;;;;;;;6252299;28;20045;-65
2022/11/23 04:16:20;;;;;;;89.15;29.73;;;;;;;;;;6254192;28;20060;-66
2022/11/23 04:19:21;;;;;;;104.00;31.98;;;;;;;;;;6253805;28;20490;-62
2022/11/23 04:22:21;;;;;;;106.35;36.60;;;;;;;;;;6251278;28;20038;-67
2022/11/23 04:25:22;;;;;;;101.70;32.80;;;;;;;;;;6253257;28;20052;-65
2022/11/23 04:28:22;;;;;;;108.22;34.80;;;;;;;;;;6252555;28;20435;-63
2022/11/23 04:31:23;;;;;;;114.45;37.13;;;;;;;;;;6270762;28;20045;-68
2022/11/23 04:34:24;;;;;;;126.15;42.33;;;;;;;;;;6254452;28;20057;-66
2022/11/23 04:37:24;;;;;;;119.15;37.85;;;;;;;;;;6254124;28;20048;-64
2022/11/23 04:40:25;;;;;;;108.68;36.13;;;;;;;;;;6254128;28;20075;-63
2022/11/23 04:43:25;;;;;;;113.13;38.00;;;;;;;;;;6252403;28;20056;-66
2022/11/23 04:46:26;;;;;;;109.50;36.38;;;;;;;;;;6253952;28;20145;-71
2022/11/23 04:49:26;;;;;;;117.93;37.75;;;;;;;;;;6250704;28;20052;-64
2022/11/23 04:52:27;;;;;;;121.28;38.42;;;;;;;;;;6251846;28;20049;-74
2022/11/23 04:55:27;;;;;;;128.25;39.72;;;;;;;;;;6252782;28;20052;-74
2022/11/23 04:58:28;;;;;;;115.80;37.75;;;;;;;;;;6269072;28;20131;-72
2022/11/23 05:01:29;;;;;;;125.97;42.42;;;;;;;;;;6259179;28;20388;-63
2022/11/23 05:04:29;;;;;;;119.47;38.85;;;;;;;;;;6264147;28;20077;-63
2022/11/23 05:07:30;;;;;;;111.03;33.65;;;;;;;;;;6252791;28;20052;-67
2022/11/23 05:10:31;;;;;;;99.68;33.60;;;;;;;;;;6252814;28;20055;-63
2022/11/23 05:13:31;;;;;;;98.35;33.53;;;;;;;;;;6251740;28;20753;-63
2022/11/23 05:16:32;;;;;;;104.63;35.60;;;;;;;;;;6261102;28;20052;-68
2022/11/23 05:19:32;;;;;;;109.93;34.92;;;;;;;;;;6254975;28;20049;-71
2022/11/23 05:22:33;;;;;;;108.18;34.97;;;;;;;;;;6257184;28;20045;-63
2022/11/23 05:25:34;;;;;;;106.95;33.25;;;;;;;;;;6251699;28;20123;-63
2022/11/23 05:28:36;;;;;;;103.75;35.58;;;;;;;;;;6259310;28;20484;-63
2022/11/23 05:31:37;;;;;;;95.95;32.55;;;;;;;;;;6253004;28;20403;-63
2022/11/23 05:34:37;;;;;;;105.50;33.40;;;;;;;;;;6249889;28;20044;-64
2022/11/23 05:37:38;;;;;;;103.78;34.53;;;;;;;;;;6263548;28;20044;-68
2022/11/23 05:40:38;;;;;;;106.00;34.65;;;;;;;;;;6261831;28;20048;-63
2022/11/23 05:43:39;;;;;;;107.88;35.30;;;;;;;;;;6251504;28;20045;-63
2022/11/23 05:46:40;;;;;;;119.75;35.85;;;;;;;;;;6268286;28;20049;-63
2022/11/23 05:49:40;;;;;;;128.43;37.63;;;;;;;;;;6251875;28;20476;-62
2022/11/23 05:52:41;;;;;;;140.00;41.03;;;;;;;;;;6245950;28;20084;-72
2022/11/23 05:55:41;;;;;;;137.68;41.33;;;;;;;;;;6251623;28;20053;-63
2022/11/23 05:58:43;;;;;;;121.03;38.47;;;;;;;;;;6261138;28;20075;-64
2022/11/23 06:01:44;;;;;;;115.95;37.35;;;;;;;;;;6253215;28;20045;-63
2022/11/23 06:04:44;;;;;;;114.03;36.53;;;;;;;;;;6250077;28;20051;-63
2022/11/23 06:07:45;;;;;;;96.60;34.88;;;;;;;;;;6248904;28;20064;-63
2022/11/23 06:10:46;;;;;;;108.03;38.47;;;;;;;;;;6250452;28;20045;-66
2022/11/23 06:13:47;;;;;;;118.03;41.58;;;;;;;;;;6245669;28;20049;-62
2022/11/23 06:16:49;;;;;;;125.40;43.20;;;;;;;;;;6247353;28;20100;-63
2022/11/23 06:19:50;;;;;;;126.10;40.10;;;;;;;;;;6248653;28;20488;-63
2022/11/23 06:22:52;;;;;;;110.65;38.67;;;;;;;;;;6262121;28;20187;-63
2022/11/23 06:25:53;;;;;;;110.80;39.13;;;;;;;;;;6257150;28;20064;-65
2022/11/23 06:28:53;;;;;;;109.85;38.50;;;;;;;;;;6250955;28;20409;-66
2022/11/23 06:31:54;;;;;;;130.80;39.55;;;;;;;;;;6267584;28;20400;-63
2022/11/23 06:34:55;;;;;;;128.05;40.58;;;;;;;;;;6264070;28;20041;-62
2022/11/23 06:37:55;;;;;;;147.95;46.33;;;;;;;;;;6256127;28;20045;-63
2022/11/23 06:40:57;;;;;;;160.52;47.58;;;;;;;;;;6250422;28;20037;-62
2022/11/23 06:43:58;;;;;;;126.28;39.47;;;;;;;;;;6256369;28;20497;-62
2022/11/23 06:46:59;;;;;;;108.80;35.65;;;;;;;;;;6249691;28;20131;-63
2022/11/23 06:49:59;;;;;;;98.75;34.80;;;;;;;;;;6250955;28;20051;-62
2022/11/23 06:53:00;;;;;;;96.15;32.80;;;;;;;;;;6247866;28;20045;-62
2022/11/23 06:56:01;;;;;;;113.28;36.20;;;;;;;;;;6247057;28;20053;-63
2022/11/23 06:59:02;;;;;;;104.63;35.03;;;;;;;;;;6248288;28;20084;-66
2022/11/23 07:02:03;;;;;;;107.97;35.88;;;;;;;;;;6246797;28;20052;-63
2022/11/23 07:05:04;;;;;;;109.78;37.08;;;;;;;;;;6249738;28;20041;-63
2022/11/23 07:08:04;;;;;;;112.60;38.38;;;;;;;;;;6250066;28;20053;-62
2022/11/23 07:11:08;;;;;;;112.47;37.53;;;;;;;;;;6248146;28;20492;-63
2022/11/23 07:14:08;;;;;;;118.90;37.25;;;;;;;;;;6248531;28;20051;-62
2022/11/23 07:17:10;;;;;;;108.72;37.15;;;;;;;;;;6250836;28;20076;-63
2022/11/23 07:20:11;;;;;;;120.77;40.33;;;;;;;;;;6249653;28;20122;-63
2022/11/23 07:23:12;;;;;;;137.63;44.92;;;;;;;;;;6249504;28;20397;-62
2022/11/23 07:26:13;;;;;;;152.52;49.05;;;;;;;;;;6232984;28;20425;-63
2022/11/23 07:29:13;;;;;;;131.27;42.35;;;;;;;;;;6249119;28;20067;-63
2022/11/23 07:32:14;;;;;;;114.72;39.97;;;;;;;;;;6248174;28;20052;-64
2022/11/23 07:35:15;;;;;;;113.65;38.00;;;;;;;;;;6248694;28;20053;-64
2022/11/23 07:38:15;;;;;;;112.60;38.38;;;;;;;;;;6250908;28;20045;-63
2022/11/23 07:41:16;;;;;;;108.47;39.17;;;;;;;;;;6255224;28;20069;-63
2022/11/23 07:44:17;;;;;;;137.85;42.03;;;;;;;;;;6250966;28;20041;-63
2022/11/23 07:47:17;;;;;;;128.75;41.55;;;;;;;;;;6254938;28;20107;-63
2022/11/23 07:50:18;;;;;;;119.18;39.78;;;;;;;;;;6251902;28;20056;-63
2022/11/23 07:53:19;;;;;;;131.27;40.10;;;;;;;;;;6245380;28;20050;-63
2022/11/23 07:56:20;;;;;;;140.18;42.85;;;;;;;;;;6249304;28;20587;-63
2022/11/23 07:59:20;;;;;;;122.00;40.75;;;;;;;;;;6248544;28;20049;-63
2022/11/23 08:02:21;;;;;;;142.57;43.38;;;;;;;;;;6248263;28;20075;-63
2022/11/23 08:05:21;;;;;;;123.03;40.35;;;;;;;;;;6251146;28;20044;-63
2022/11/23 08:08:22;;;;;;;147.32;48.20;;;;;;;;;;6250274;28;20557;-63
2022/11/23 08:11:23;;;;;;;127.38;41.38;;;;;;;;;;6246369;28;20134;-63
2022/11/23 08:14:23;;;;;;;137.23;44.08;;;;;;;;;;6247485;28;20053;-63
2022/11/23 08:17:24;;;;;;;128.10;41.90;;;;;;;;;;6248147;28;20052;-63
2022/11/23 08:20:26;;;;;;;122.53;41.10;;;;;;;;;;6246432;28;20037;-63
2022/11/23 08:23:27;;;;;;;133.88;43.25;;;;;;;;;;6251119;28;20049;-64
2022/11/23 08:26:27;;;;;;;115.20;38.60;;;;;;;;;;6251772;28;20049;-62
2022/11/23 08:29:29;;;;;;;111.40;37.03;;;;;;;;;;6254446;28;20083;-63
2022/11/23 08:32:29;;;;;;;109.67;37.50;;;;;;;;;;6247428;28;20060;-63
2022/11/23 08:35:35;;;;;;;119.45;38.38;;;;;;;;;;6253739;28;20128;-62
2022/11/23 08:38:35;;;;;;;139.05;42.97;;;;;;;;;;6252117;28;20518;-62
2022/11/23 08:41:37;;;;;;;121.43;41.88;;;;;;;;;;6250066;28;20478;-62
2022/11/23 08:44:37;;;;;;;111.88;36.90;;;;;;;;;;6251674;28;20511;-63
2022/11/23 08:47:38;;;;;;;109.32;36.28;;;;;;;;;;6254148;28;20041;-63
2022/11/23 08:50:39;;;;;;;107.65;36.63;;;;;;;;;;6251214;28;20064;-63
2022/11/23 08:53:40;;;;;;;106.38;35.25;;;;;;;;;;6252143;28;20040;-62
2022/11/23 08:56:40;;;;;;;106.82;35.17;;;;;;;;;;6251465;28;20045;-62
2022/11/23 08:59:41;;;;;;;103.57;35.15;;;;;;;;;;6247204;28;20053;-63
2022/11/23 09:02:41;;;;;;;113.75;36.22;;;;;;;;;;6250243;28;20053;-63
2022/11/23 09:05:42;;;;;;;116.30;38.35;;;;;;;;;;6249971;28;20053;-64
2022/11/23 09:08:43;;;;;;;114.53;40.45;;;;;;;;;;6250652;28;20073;-63
2022/11/23 09:11:44;;;;;;;120.20;39.95;;;;;;;;;;6248579;28;20053;-63
2022/11/23 09:14:44;;;;;;;104.75;36.08;;;;;;;;;;6251196;28;20041;-63
2022/11/23 09:17:46;;;;;;;99.38;33.83;;;;;;;;;;6250677;28;20067;-62
2022/11/23 09:20:47;;;;;;;92.82;30.38;;;;;;;;;;6251479;28;20421;-63
2022/11/23 09:23:47;;;;;;;93.45;30.05;;;;;;;;;;6252550;28;20052;-63
2022/11/23 09:26:48;;;;;;;97.07;32.70;;;;;;;;;;6252890;28;20042;-63
2022/11/23 09:29:49;;;;;;;98.57;30.85;;;;;;;;;;6252064;28;20415;-63
2022/11/23 09:32:49;;;;;;;99.10;31.95;;;;;;;;;;6251448;28;20049;-71
2022/11/23 09:36:00;;;;;;;100.50;35.70;;;;;;;;;;6254587;28;20072;-63
2022/11/23 09:39:01;;;;;;;95.70;34.25;;;;;;;;;;6247554;28;20041;-63
2022/11/23 09:42:12;;;;;;;88.95;32.67;;;;;;;;;;6248654;28;20045;-67
2022/11/23 09:45:47;;;;;;;85.65;30.23;;;;;;;;;;6245489;28;20056;-63
2022/11/23 09:49:09;;;;;;;83.20;30.20;;;;;;;;;;6241680;28;20071;-63
2022/11/23 09:52:17;;;;;;;84.88;30.40;;;;;;;;;;6249994;28;20045;-63
2022/11/23 09:55:38;;;;;;;75.18;26.48;;;;;;;;;;6247650;28;20057;-63
2022/11/23 09:58:39;;;;;;;77.38;26.13;;;;;;;;;;6248227;28;20048;-63
2022/11/23 10:01:40;;;;;;;69.60;26.50;;;;;;;;;;6250823;28;20055;-64
2022/11/23 10:04:42;;;;;;;67.85;24.05;;;;;;;;;;6254245;28;20053;-66
2022/11/23 10:08:03;;;;;;;63.67;22.83;;;;;;;;;;6248228;28;20051;-63
2022/11/23 10:11:31;;;;;;;69.07;24.38;;;;;;;;;;6251394;28;20049;-63
2022/11/23 10:14:55;;;;;;;62.72;22.90;;;;;;;;;;6249446;28;20068;-64
2022/11/23 10:18:26;;;;;;;63.10;23.90;;;;;;;;;;6251884;28;20190;-65
2022/11/23 10:21:45;;;;;;;58.95;21.15;;;;;;;;;;6251917;28;20049;-63
2022/11/23 10:24:50;;;;;;;57.58;21.15;;;;;;;;;;6245321;28;20052;-64
2022/11/23 10:27:57;;;;;;;53.65;19.90;;;;;;;;;;6247725;28;20064;-64
2022/11/23 10:31:16;;;;;;;58.75;23.17;;;;;;;;;;6248298;28;20415;-65
2022/11/23 10:34:41;;;;;;;55.92;20.42;;;;;;;;;;6248204;28;20140;-65
2022/11/23 10:37:42;;;;;;;54.13;21.90;;;;;;;;;;6249909;28;20041;-64
2022/11/23 10:40:57;;;;;;;60.27;20.63;;;;;;;;;;6247762;28;20053;-65
2022/11/23 10:44:17;;;;;;;52.17;20.48;;;;;;;;;;6247428;28;21065;-63
2022/11/23 10:47:38;;;;;;;53.95;20.55;;;;;;;;;;6247008;28;20041;-64
2022/11/23 10:50:43;;;;;;;64.55;23.60;;;;;;;;;;6245587;28;20075;-64
2022/11/23 10:53:51;;;;;;;71.90;24.88;;;;;;;;;;6247106;28;20037;-64
2022/11/23 10:56:53;;;;;;;68.97;24.60;;;;;;;;;;6248323;28;20118;-64
2022/11/23 11:00:17;;;;;;;60.83;21.75;;;;;;;;;;6249256;28;20553;-65
2022/11/23 11:03:23;;;;;;;65.20;25.48;;;;;;;;;;6250344;28;20045;-63
2022/11/23 11:06:27;;;;;;;63.97;22.80;;;;;;;;;;6249253;28;20072;-64
2022/11/23 11:09:27;;;;;;;68.55;24.40;;;;;;;;;;6256889;28;20462;-64
2022/11/23 11:12:31;;;;;;;70.60;24.75;;;;;;;;;;6248941;28;20072;-67
2022/11/23 11:15:32;;;;;;;68.50;24.08;;;;;;;;;;6251199;28;20545;-67
2022/11/23 11:18:35;;;;;;;63.80;22.83;;;;;;;;;;6247958;28;20067;-66
2022/11/23 11:21:40;;;;;;;61.53;20.83;;;;;;;;;;6247345;28;20041;-67
2022/11/23 11:24:46;;;;;;;53.10;19.48;;;;;;;;;;6249163;28;20120;-67
2022/11/23 11:27:50;;;;;;;58.20;20.92;;;;;;;;;;6250395;28;20114;-67
2022/11/23 11:30:57;;;;;;;58.13;20.40;;;;;;;;;;6248796;28;20049;-68
2022/11/23 11:34:15;;;;;;;62.33;21.98;;;;;;;;;;6246807;28;20099;-67
2022/11/23 11:37:31;;;;;;;75.18;22.90;;;;;;;;;;6228455;28;20724;-68
2022/11/23 11:40:36;;;;;;;62.10;22.20;;;;;;;;;;6248802;28;20041;-67
2022/11/23 11:43:52;;;;;;;64.38;25.35;;;;;;;;;;6246890;28;20095;-69
2022/11/23 11:47:03;;;;;;;60.75;20.88;;;;;;;;;;6248933;28;20054;-64
2022/11/23 11:50:20;;;;;;;66.32;26.60;;;;;;;;;;6246960;28;20061;-63
2022/11/23 11:53:29;;;;;;;59.75;21.88;;;;;;;;;;6245340;28;20053;-63
2022/11/23 11:56:37;;;;;;;63.22;23.42;;;;;;;;;;6251004;28;20144;-63
2022/11/23 11:59:44;;;;;;;67.35;22.77;;;;;;;;;;6249221;28;20072;-63
2022/11/23 12:03:13;;;;;;;65.38;24.67;;;;;;;;;;6252384;28;20052;-64
2022/11/23 12:06:22;;;;;;;66.85;23.60;;;;;;;;;;6252165;28;20126;-63
2022/11/23 12:09:30;;;;;;;66.47;22.52;;;;;;;;;;6246799;28;20049;-63
2022/11/23 12:12:35;;;;;;;77.85;25.42;;;;;;;;;;6255571;28;20072;-63
2022/11/23 12:15:41;;;;;;;71.18;27.27;;;;;;;;;;6254157;28;20050;-62
2022/11/23 12:19:26;;;;;;;64.47;24.13;;;;;;;;;;6253360;28;20072;-63
2022/11/23 12:22:39;;;;;;;70.38;24.33;;;;;;;;;;6185143;28;20080;-63
2022/11/23 12:25:42;;;;;;;;;;;;;;;;;;6187839;28;20065;-63
2022/11/23 12:28:54;;;;;;;81.25;29.67;;;;;;;;;;6253684;28;20598;-63
2022/11/23 12:32:25;;;;;;;76.47;25.23;;;;;;;;;;6255006;28;20140;-63
2022/11/23 12:35:34;;;;;;;78.15;25.05;;;;;;;;;;6251630;28;20102;-63
2022/11/23 12:39:07;;;;;;;74.35;25.23;;;;;;;;;;6252388;28;20055;-63
2022/11/23 12:42:23;;;;;;;69.63;23.55;;;;;;;;;;6236952;28;20472;-64
2022/11/23 12:46:03;;;;;;;63.03;22.13;;;;;;;;;;6248526;28;20116;-63
2022/11/23 12:49:06;;;;;;;64.82;22.17;;;;;;;;;;6230879;28;20067;-63
2022/11/23 12:52:32;;;;;;;60.22;20.98;;;;;;;;;;6245443;28;20848;-63
2022/11/23 12:55:47;;;;;;;62.70;23.67;;;;;;;;;;6251454;28;20045;-63
2022/11/23 12:58:51;;;;;;;77.03;25.55;;;;;;;;;;6264925;28;20056;-63
2022/11/23 13:02:00;;;;;;;73.07;25.50;;;;;;;;;;6255708;28;20128;-62
2022/11/23 13:05:10;;;;;;;80.20;28.40;;;;;;;;;;6247349;28;20037;-64
2022/11/23 13:08:39;;;;;;;78.45;24.88;;;;;;;;;;6251722;28;20041;-63
2022/11/23 13:12:02;;;;;;;86.25;28.67;;;;;;;;;;6249240;28;20140;-63
2022/11/23 13:15:14;;;;;;;92.32;30.60;;;;;;;;;;6248954;28;20602;-62
2022/11/23 13:18:26;;;;;;;84.07;30.45;;;;;;;;;;6250358;28;20123;-62
2022/11/23 13:21:42;;;;;;;65.80;25.15;;;;;;;;;;6248199;28;20144;-62
2022/11/23 13:25:12;;;;;;;76.32;24.92;;;;;;;;;;6252991;28;20103;-62
2022/11/23 13:28:30;;;;;;;64.47;21.15;;;;;;;;;;6248451;28;20481;-62
2022/11/23 13:31:34;;;;;;;63.10;21.30;;;;;;;;;;6251051;28;20143;-62
2022/11/23 13:34:44;;;;;;;85.40;27.27;;;;;;;;;;6250722;28;20520;-62
2022/11/23 13:37:56;;;;;;;78.57;28.90;;;;;;;;;;6249653;28;20045;-63
2022/11/23 13:40:58;;;;;;;80.18;25.98;;;;;;;;;;6243948;28;20515;-64
2022/11/23 13:44:21;;;;;;;87.07;29.27;;;;;;;;;;6248538;28;20053;-62
2022/11/23 13:47:22;;;;;;;76.05;28.02;;;;;;;;;;6248866;28;20451;-62
2022/11/23 13:50:24;;;;;;;85.63;30.63;;;;;;;;;;6247876;28;20045;-65
2022/11/23 13:53:33;;;;;;;90.15;30.95;;;;;;;;;;6250842;28;20662;-62
2022/11/23 13:56:40;;;;;;;69.88;24.15;;;;;;;;;;6250462;28;20107;-62
2022/11/23 13:59:40;;;;;;;61.55;21.23;;;;;;;;;;6249701;28;20551;-63
2022/11/23 14:02:41;;;;;;;69.20;23.92;;;;;;;;;;6244026;28;20051;-62
2022/11/23 14:05:47;;;;;;;63.08;20.77;;;;;;;;;;6248583;28;20594;-62
2022/11/23 14:09:21;;;;;;;69.93;25.05;;;;;;;;;;6250016;28;20531;-62
2022/11/23 14:12:48;;;;;;;80.35;26.67;;;;;;;;;;6249098;28;20045;-63
2022/11/23 14:15:57;;;;;;;74.15;26.00;;;;;;;;;;6251826;28;20400;-62
2022/11/23 14:19:09;;;;;;;83.05;23.50;;;;;;;;;;6245163;28;20179;-63
2022/11/23 14:22:31;;;;;;;74.25;24.13;;;;;;;;;;6236656;28;20052;-63
2022/11/23 14:26:10;;;;;;;70.05;25.80;;;;;;;;;;6241519;28;20052;-63
2022/11/23 14:29:13;;;;;;;85.03;25.27;;;;;;;;;;6265229;28;20056;-63
2022/11/23 14:32:23;;;;;;;76.13;22.50;;;;;;;;;;6259894;28;20040;-64
2022/11/23 14:35:43;;;;;;;72.20;24.38;;;;;;;;;;6250416;28;20060;-63
2022/11/23 14:38:46;;;;;;;69.85;24.20;;;;;;;;;;6254925;28;20525;-63
2022/11/23 14:41:53;;;;;;;86.00;26.50;;;;;;;;;;6257783;28;20128;-68
2022/11/23 14:44:59;;;;;;;75.65;26.13;;;;;;;;;;6253328;28;21279;-65
2022/11/23 14:48:25;;;;;;;79.90;27.75;;;;;;;;;;6253454;28;20072;-69
2022/11/23 14:51:27;;;;;;;71.40;24.00;;;;;;;;;;6254620;28;20073;-73
2022/11/23 14:54:28;;;;;;;86.70;30.85;;;;;;;;;;6251195;28;21577;-63
2022/11/23 14:57:40;;;;;;;78.00;28.65;;;;;;;;;;6251907;28;20080;-64
2022/11/23 15:00:44;;;;;;;76.68;29.48;;;;;;;;;;6255227;28;20164;-68
2022/11/23 15:04:17;;;;;;;67.50;24.05;;;;;;;;;;6250062;28;20067;-66
2022/11/23 15:07:22;;;;;;;71.53;26.10;;;;;;;;;;6224322;28;20346;-68
2022/11/23 15:10:59;;;;;;;67.72;22.60;;;;;;;;;;6253632;28;20673;-67
2022/11/23 15:14:03;;;;;;;83.10;28.20;;;;;;;;;;6252606;28;20052;-62
2022/11/23 15:17:16;;;;;;;79.75;25.40;;;;;;;;;;6254373;28;20171;-68
2022/11/23 15:20:16;;;;;;;;;;;;;;;;;;6254997;28;20045;-73
2022/11/23 15:23:21;;;;;;;74.82;27.20;;;;;;;;;;6252853;28;19925;-67
2022/11/23 15:26:31;;;;;;;90.65;32.67;;;;;;;;;;6254278;28;20098;-70
2022/11/23 15:29:34;;;;;;;82.13;30.55;;;;;;;;;;6256094;28;20103;-68
2022/11/23 15:32:35;;;;;;;90.13;32.67;;;;;;;;;;6257344;28;20513;-68
2022/11/23 15:35:38;;;;;;;85.43;30.17;;;;;;;;;;6252524;28;20048;-67
2022/11/23 15:38:40;;;;;;;74.82;26.52;;;;;;;;;;6261235;28;20048;-70
2022/11/23 15:41:40;;;;;;;77.55;28.27;;;;;;;;;;6274514;28;20538;-64
2022/11/23 15:44:41;;;;;;;74.95;24.75;;;;;;;;;;6264642;28;20056;-69
2022/11/23 15:47:41;;;;;;;77.18;27.02;;;;;;;;;;6267854;28;20147;-62
2022/11/23 15:50:55;;;;;;;80.20;28.02;;;;;;;;;;6266970;28;20060;-64
2022/11/23 15:53:59;;;;;;;65.88;23.60;;;;;;;;;;6270794;28;20145;-64
2022/11/23 15:57:00;;;;;;;89.25;28.35;;;;;;;;;;6267942;28;20613;-66
2022/11/23 16:00:04;;;;;;;73.85;24.50;;;;;;;;;;6267452;28;20072;-65
2022/11/23 16:03:25;;;;;;;74.50;25.42;;;;;;;;;;6272498;28;20546;-65
2022/11/23 16:06:37;;;;;;;81.40;28.33;;;;;;;;;;6267200;28;20530;-62
2022/11/23 16:09:42;;;;;;;77.10;27.50;;;;;;;;;;6270874;28;20052;-64
2022/11/23 16:12:50;;;;;;;76.15;27.13;;;;;;;;;;6269504;28;20147;-63
2022/11/23 16:15:58;;;;;;;73.47;24.17;;;;;;;;;;6272442;28;20669;-62
2022/11/23 16:18:59;;;;;;;65.55;23.38;;;;;;;;;;6271349;28;20040;-62
2022/11/23 16:22:04;;;;;;;77.53;25.73;;;;;;;;;;6268497;28;20131;-65
2022/11/23 16:25:06;;;;;;;74.18;25.60;;;;;;;;;;6264014;28;20052;-60
2022/11/23 16:28:21;;;;;;;;;;;;;;;;;;6262463;28;20503;-64
2022/11/23 16:31:30;;;;;;;89.30;27.50;;;;;;;;;;6264479;28;19954;-67
2022/11/23 16:34:31;;;;;;;89.05;30.00;;;;;;;;;;6263388;28;20053;-62
2022/11/23 16:37:32;;;;;;;93.28;30.00;;;;;;;;;;6261990;28;20063;-67
2022/11/23 16:40:32;;;;;;;86.25;28.02;;;;;;;;;;6262328;28;20491;-61
2022/11/23 16:43:37;;;;;;;117.60;35.88;;;;;;;;;;6263803;28;20134;-74
2022/11/23 16:46:38;;;;;;;119.45;34.97;;;;;;;;;;6246234;28;20049;-66
2022/11/23 16:49:39;;;;;;;181.63;51.13;;;;;;;;;;6263449;28;20207;-73
2022/11/23 16:52:43;;;;;;;142.20;39.55;;;;;;;;;;6260558;28;20053;-68
2022/11/23 16:55:54;;;;;;;102.10;31.42;;;;;;;;;;6257880;28;20060;-66
2022/11/23 16:58:55;;;;;;;88.53;31.40;;;;;;;;;;6258826;28;20585;-59
2022/11/23 17:01:56;;;;;;;91.87;29.37;;;;;;;;;;6257634;28;20540;-62
2022/11/23 17:04:57;;;;;;;93.80;31.73;;;;;;;;;;6264400;28;20287;-70
2022/11/23 17:07:58;;;;;;;93.15;32.83;;;;;;;;;;6265586;28;20419;-67
2022/11/23 17:10:58;;;;;;;92.90;31.55;;;;;;;;;;6268686;28;20410;-68
2022/11/23 17:13:59;;;;;;;84.43;28.75;;;;;;;;;;6265654;28;20054;-64
2022/11/23 17:17:01;;;;;;;91.30;31.10;;;;;;;;;;6267880;28;20045;-73
2022/11/23 17:20:02;;;;;;;89.53;33.92;;;;;;;;;;6269965;28;20045;-72
2022/11/23 17:23:02;;;;;;;81.60;27.70;;;;;;;;;;6269541;28;20064;-67
2022/11/23 17:26:03;;;;;;;84.93;28.73;;;;;;;;;;6270978;28;20057;-67
2022/11/23 17:29:09;;;;;;;87.00;29.83;;;;;;;;;;6270212;28;20576;-65
2022/11/23 17:32:11;;;;;;;67.32;24.23;;;;;;;;;;6272552;28;20134;-62
2022/11/23 17:35:12;;;;;;;72.28;25.58;;;;;;;;;;6262026;28;20071;-60
2022/11/23 17:38:15;;;;;;;77.22;26.25;;;;;;;;;;6264450;28;20106;-69
2022/11/23 17:41:15;;;;;;;74.35;25.58;;;;;;;;;;6269997;28;20427;-66
2022/11/23 17:44:17;;;;;;;89.90;29.00;;;;;;;;;;6263836;28;20503;-66
2022/11/23 17:47:23;;;;;;;78.28;24.55;;;;;;;;;;6274433;28;20093;-66
2022/11/23 17:50:27;;;;;;;80.55;25.55;;;;;;;;;;6269138;28;20103;-73